• Join FlightAware (Why Join?)
  • Login
  • US Flag 
11:53PM EDT


 

Airport Tracker/Info


-or-


 

Live Flight TrackerFlight Track Log ✈ N28SP ✈ 01-Sep-2013 ✈ KIAH - KAPC

Flight Track Log - Related Links

Times and Time Zones

All times are in EDT time to prevent confusion due to time zone crossing. See the N28SP flight status page for this flight to view local times or setup timezone preferences in your user account.

Time Position Orientation Groundspeed Altitude Reporting Facility
EDT Latitude Longitude Course Direction KTS MPH feet Rate Location/Type
04:07PM 29.9683 -95.3475 221° Southwest 148 170 600  Level Houston Center
04:07PM 29.9492 -95.3667 221° Southwest 172 198 2,000 2,100 Climbing Houston Center
04:08PM 29.9356 -95.4239 255° West 211 243 4,000 2,400 Climbing Houston Center
04:09PM 29.9506 -95.4969 283° West 208 239 7,000 2,700 Climbing Houston Center
04:10PM 29.9625 -95.5606 282° West 207 238 9,500 2,220 Climbing Houston Center
04:12PM 29.9786 -95.6378 284° West 213 245 12,300 2,100 Climbing Houston Center
04:13PM 29.9944 -95.7058 285° West 218 251 14,500 2,040 Climbing Houston Center
04:14PM 30.0086 -95.7753 283° West 224 258 16,500 2,220 Climbing Houston Center
04:15PM 30.0283 -95.8639 284° West 236 272 19,100 2,100 Climbing Houston Center
04:16PM 30.0439 -95.9375 284° West 236 272 20,900 1,800 Climbing Houston Center
04:17PM 30.0606 -96.0164 284° West 252 290 22,800 1,680 Climbing Houston Center
04:18PM 30.0756 -96.0869 284° West 249 287 24,400 1,620 Climbing Houston Center
04:19PM 30.0892 -96.1825 279° West 251 289 26,200 1,500 Climbing Houston Center
04:20PM 30.1019 -96.2669 280° West 264 304 27,500 1,200 Climbing Houston Center
04:21PM 30.1161 -96.3547 281° West 277 319 28,700 1,080 Climbing Houston Center
04:22PM 30.1303 -96.4486 280° West 285 328 29,800 960 Climbing Houston Center
04:23PM 30.1447 -96.5453 280° West 297 342 30,700 960 Climbing Houston Center
04:24PM 30.1592 -96.6442 280° West 306 352 31,800 1,080 Climbing Houston Center
04:25PM 30.1736 -96.7433 280° West 308 354 33,000 1,080 Climbing Houston Center
04:26PM 30.1886 -96.8389 280° West 302 348 34,100 960 Climbing Houston Center
04:27PM 30.2019 -96.9361 279° West 303 349 35,100 840 Climbing Houston Center
04:28PM 30.2167 -97.0325 280° West 302 348 35,900 960 Climbing Houston Center
04:29PM 30.2311 -97.1303 280° West 303 349 37,100 960 Climbing Houston Center
04:30PM 30.2453 -97.2275 280° West 302 348 37,900 420 Climbing Houston Center
04:31PM 30.2758 -97.3378 288° West 306 352 38,000  Climbing Houston Center
04:32PM 30.3039 -97.4464 287° West 340 391 38,000  Level Houston Center
04:33PM 30.3339 -97.5589 287° West 358 412 38,000  Level Houston Center
04:34PM 30.3664 -97.6808 287° West 386 444 38,000  Level Houston Center
04:35PM 30.3989 -97.8039 287° West 393 452 38,000  Level Houston Center
04:36PM 30.4311 -97.9272 287° West 396 456 38,000  Level Houston Center
04:37PM 30.4758 -98.0469 293° West 397 457 38,000  Level Houston Center
04:38PM 30.5247 -98.1644 296° West 400 460 38,000  Level Houston Center
04:39PM 30.5733 -98.2797 296° West 394 453 38,000  Level Houston Center
04:41PM 30.6219 -98.3964 296° West 396 456 38,000  Level Houston Center
04:42PM 30.6700 -98.5125 296° West 395 455 38,000  Level Houston Center
04:43PM 30.7172 -98.6281 295° West 393 452 38,000  Level Houston Center
04:44PM 30.7647 -98.7433 296° West 392 451 38,000  Level Houston Center
04:45PM 30.8192 -98.8772 295° West 389 448 38,000  Level Houston Center
04:46PM 30.8661 -98.9939 295° West 394 453 38,000  Level Houston Center
04:47PM 30.9122 -99.1106 295° West 392 451 38,000  Level Houston Center
04:48PM 30.9636 -99.2333 296° West 398 458 38,000  Level Houston Center
04:49PM 31.0100 -99.3494 295° West 396 456 38,000  Level Houston Center
04:50PM 31.0558 -99.4653 295° West 397 457 38,000  Level Houston Center
04:51PM 31.1017 -99.5772 296° West 387 445 38,000  Level Houston Center
04:52PM 31.1492 -99.6964 295° West 403 464 38,000  Level Houston Center
04:53PM 31.1961 -99.8136 295° West 397 457 38,000  Level Houston Center
04:54PM 31.2406 -99.9306 294° West 397 457 38,000  Level Houston Center
04:55PM 31.2978 -100.0708 296° West 400 460 38,000  Level Houston Center
04:56PM 31.3428 -100.1872 294° West 396 456 38,000  Level Houston Center
04:57PM 31.3883 -100.3042 295° West 397 457 38,000  Level Houston Center
04:58PM 31.4344 -100.4200 295° West 397 457 38,000  Level Houston Center
04:59PM 31.4789 -100.5350 294° West 390 449 38,000  Level Houston Center
05:00PM 31.5247 -100.6542 294° West 399 459 38,000  Level Houston Center
05:01PM 31.5597 -100.7386 296° West 394 453 38,000  Level Fort Worth Center
05:02PM 31.6025 -100.8550 293° West 394 453 38,000  Level Fort Worth Center
05:03PM 31.6472 -100.9761 293° West 399 459 38,000  Level Fort Worth Center
05:04PM 31.6917 -101.0925 294° West 399 459 38,000  Level Fort Worth Center
05:05PM 31.7383 -101.2092 295° West 399 459 38,000  Level Fort Worth Center
05:06PM 31.7828 -101.3258 294° West 399 459 38,000  Level Fort Worth Center
05:07PM 31.8292 -101.4453 295° West 399 459 38,000  Level Fort Worth Center
05:08PM 31.8675 -101.5497 293° West 399 459 38,000  Level Fort Worth Center
05:09PM 31.9097 -101.6642 294° West 399 459 38,000  Level Fort Worth Center
05:10PM 31.9536 -101.7811 294° West 394 453 38,000  Level Fort Worth Center
05:11PM 31.9975 -101.8983 294° West 388 447 38,000  Level Fort Worth Center
05:12PM 32.0414 -102.0133 294° West 388 447 38,000  Level Fort Worth Center
05:13PM 32.0831 -102.1281 293° West 383 441 38,000  Level Fort Worth Center
05:14PM 32.1247 -102.2406 294° West 383 441 38,000  Level Fort Worth Center
05:15PM 32.1658 -102.3656 291° West 378 435 38,000  Level Fort Worth Center
05:16PM 32.2069 -102.4831 292° West 378 435 38,000  Level Fort Worth Center
05:17PM 32.2483 -102.5961 293° West 378 435 38,000  Level Fort Worth Center
05:18PM 32.2914 -102.7114 294° West 383 441 38,000  Level Fort Worth Center
05:19PM 32.3344 -102.8294 293° West 383 441 38,000  Level Fort Worth Center
05:20PM 32.3775 -102.9453 294° West 383 441 38,000  Level Fort Worth Center
05:21PM 32.4183 -103.0561 294° West 378 435 38,000  Level Fort Worth Center
05:22PM 32.4611 -103.1719 294° West 378 435 38,000  Level Fort Worth Center
05:23PM 32.5039 -103.2853 294° West 378 435 38,000  Level Fort Worth Center
05:24PM 32.5422 -103.4014 291° West 378 435 38,000  Level Fort Worth Center
05:25PM 32.5867 -103.5175 294° West 378 435 38,000 420 Level Fort Worth Center
05:25PM 32.5994 -103.5592 290° West 381 438 38,700 1,260 Climbing Albuquerque Center
05:26PM 32.6350 -103.6650 292° West 355 409 40,000 600 Climbing Albuquerque Center
05:27PM 32.6811 -103.7828 295° West 340 391 40,000  Level Albuquerque Center
05:28PM 32.7186 -103.8914 292° West 352 405 40,000  Level Albuquerque Center
05:29PM 32.7575 -104.0033 292° West 364 419 40,000  Level Albuquerque Center
05:30PM 32.7994 -104.1261 292° West 370 426 40,000  Level Albuquerque Center
05:31PM 32.8389 -104.2406 292° West 374 430 40,000  Level Albuquerque Center
05:32PM 32.8789 -104.3556 293° West 377 434 40,000  Level Albuquerque Center
05:33PM 32.9214 -104.4800 292° West 377 434 40,000  Level Albuquerque Center
05:34PM 32.9606 -104.5972 292° West 379 436 40,000  Level Albuquerque Center
05:35PM 33.0006 -104.7142 292° West 380 437 40,000  Level Albuquerque Center
05:36PM 33.0397 -104.8322 292° West 383 441 40,000  Level Albuquerque Center
05:37PM 33.0794 -104.9489 292° West 380 437 40,000  Level Albuquerque Center
05:38PM 33.1222 -105.0736 292° West 379 436 40,000  Level Albuquerque Center
05:39PM 33.1628 -105.1900 293° West 379 436 40,000  Level Albuquerque Center
05:40PM 33.2017 -105.3072 292° West 378 435 40,000  Level Albuquerque Center
05:42PM 33.2542 -105.4275 298° West 382 440 40,000  Level Albuquerque Center
05:43PM 33.3139 -105.5283 305° West 374 430 40,000  Level Albuquerque Center
05:44PM 33.3694 -105.6231 305° West 376 433 40,000  Level Albuquerque Center
05:45PM 33.4297 -105.7239 306° West 376 433 40,000  Level Albuquerque Center
05:46PM 33.4892 -105.8256 305° West 375 432 40,000  Level Albuquerque Center
05:47PM 33.5483 -105.9261 305° West 373 429 40,000  Level Albuquerque Center
05:48PM 33.6178 -106.0492 304° West 372 428 40,000  Level Albuquerque Center
05:49PM 33.6772 -106.1492 306° West 372 428 40,000  Level Albuquerque Center
05:50PM 33.7322 -106.2433 305° West 369 425 40,000  Level Albuquerque Center
05:51PM 33.7633 -106.3611 288° West 374 430 40,000  Level Albuquerque Center
05:52PM 33.7814 -106.4850 280° West 377 434 40,000  Level Albuquerque Center
05:53PM 33.8133 -106.6125 287° West 380 437 40,000  Level Albuquerque Center
05:54PM 33.8522 -106.7311 292° West 381 438 40,000  Level Albuquerque Center
05:55PM 33.8872 -106.8503 290° West 380 437 40,000  Level Albuquerque Center
05:56PM 33.9222 -106.9711 289° West 381 438 40,000  Level Albuquerque Center
05:57PM 33.9644 -107.1186 289° West 386 444 40,000  Level Albuquerque Center
05:58PM 33.9997 -107.2389 290° West 387 445 40,000  Level Albuquerque Center
05:59PM 34.0336 -107.3586 289° West 383 441 40,000  Level Albuquerque Center
06:00PM 34.0681 -107.4792 289° West 381 438 40,000 60 Level Albuquerque Center
06:01PM 34.1114 -107.5958 294° West 381 438 40,200 1,440 Climbing Albuquerque Center
06:02PM 34.1358 -107.7044 285° West 352 405 43,000 1,320 Climbing Albuquerque Center
06:03PM 34.1617 -107.8025 288° West 315 362 43,000  Level Albuquerque Center
06:04PM 34.1911 -107.9094 288° West 327 376 43,000  Level Albuquerque Center
06:05PM 34.2222 -108.0206 289° West 341 392 43,000  Level Albuquerque Center
06:06PM 34.2536 -108.1358 288° West 355 409 43,000  Level Albuquerque Center
06:07PM 34.2942 -108.2772 289° West 367 422 43,000 -60 Level Albuquerque Center
06:08PM 34.3269 -108.3936 289° West 368 423 42,900  Descending Albuquerque Center
06:09PM 34.3567 -108.5056 288° West 357 411 43,100  Climbing Albuquerque Center
06:10PM 34.3864 -108.6056 290° West 341 392 43,000 -60 Descending Albuquerque Center
06:11PM 34.4203 -108.7272 289° West 339 390 43,000  Level Albuquerque Center
06:12PM 34.4503 -108.8350 289° West 345 397 43,000  Level Albuquerque Center
06:13PM 34.4847 -108.9672 288° West 357 411 43,000  Level Albuquerque Center
06:14PM 34.5164 -109.0831 288° West 368 423 43,000  Level Albuquerque Center
06:15PM 34.5475 -109.1997 288° West 374 430 43,000  Level Albuquerque Center
06:16PM 34.5847 -109.3350 289° West 377 434 43,000  Level Albuquerque Center
06:17PM 34.6147 -109.4489 288° West 374 430 43,000  Level Albuquerque Center
06:18PM 34.6461 -109.5656 288° West 376 433 43,000  Level Albuquerque Center
06:19PM 34.6828 -109.7019 288° West 378 435 43,000  Level Albuquerque Center
06:20PM 34.7125 -109.8181 287° West 377 434 43,000  Level Albuquerque Center
06:21PM 34.7489 -109.9531 288° West 376 433 43,000  Level Albuquerque Center
06:22PM 34.7786 -110.0686 287° West 375 432 43,000  Level Albuquerque Center
06:23PM 34.8106 -110.1883 288° West 382 440 43,000  Level Albuquerque Center
06:24PM 34.8461 -110.3256 288° West 383 441 43,000  Level Albuquerque Center
06:25PM 34.8767 -110.4408 288° West 378 435 43,000  Level Albuquerque Center
06:26PM 34.9047 -110.5572 286° West 375 432 43,000  Level Albuquerque Center
06:28PM 34.9375 -110.6908 287° West 371 427 43,000  Level Albuquerque Center
06:29PM 34.9661 -110.8064 287° West 373 429 43,000  Level Albuquerque Center
06:30PM 34.9953 -110.9253 287° West 371 427 43,000  Level Albuquerque Center
06:31PM 35.0258 -111.0453 287° West 372 428 43,000  Level Albuquerque Center
06:32PM 35.0569 -111.1678 287° West 374 430 43,000  Level Albuquerque Center
06:33PM 35.0936 -111.3144 287° West 378 435 43,000  Level Albuquerque Center
06:34PM 35.1239 -111.4353 287° West 377 434 43,000  Level Albuquerque Center
06:35PM 35.1533 -111.5561 287° West 375 432 43,000  Level Albuquerque Center
06:36PM 35.1825 -111.6767 287° West 374 430 43,000  Level Albuquerque Center
06:37PM 35.2119 -111.7939 287° West 370 426 43,000  Level Albuquerque Center
06:38PM 35.2414 -111.9131 287° West 370 426 43,000  Level Albuquerque Center
06:39PM 35.2697 -112.0347 286° West 372 428 43,000  Level Albuquerque Center
06:40PM 35.3000 -112.1556 287° West 373 429 43,000  Level Albuquerque Center
06:41PM 35.3350 -112.3008 286° West 374 430 43,000  Level Albuquerque Center
06:42PM 35.3644 -112.4228 287° West 376 433 43,000  Level Albuquerque Center
06:43PM 35.3931 -112.5458 286° West 377 434 43,000  Level Albuquerque Center
06:44PM 35.4244 -112.6836 286° West 372 428 43,000  Level Los Angeles Center
06:45PM 35.4544 -112.8069 287° West 375 432 43,000  Level Los Angeles Center
06:46PM 35.4775 -112.9056 286° West 376 433 43,000  Level Los Angeles Center
06:47PM 35.5133 -113.0631 286° West 380 437 43,000  Level Los Angeles Center
06:48PM 35.5433 -113.1892 286° West 385 443 43,000  Level Los Angeles Center
06:49PM 35.5753 -113.3275 286° West 383 441 43,000  Level Los Angeles Center
06:50PM 35.6036 -113.4522 286° West 383 441 43,000  Level Los Angeles Center
06:51PM 35.6322 -113.5778 286° West 387 445 43,000  Level Los Angeles Center
06:52PM 35.6767 -113.7233 291° West 384 442 43,000  Level Los Angeles Center
06:53PM 35.7150 -113.8611 289° West 381 438 43,000  Level Los Angeles Center
06:55PM 35.7483 -113.9836 289° West 378 435 43,000  Level Los Angeles Center
06:56PM 35.7828 -114.1056 289° West 378 435 43,000  Level Los Angeles Center
06:57PM 35.8256 -114.2531 290° West 379 436 43,000  Level Los Angeles Center
06:58PM 35.8592 -114.3758 289° West 378 435 43,000  Level Los Angeles Center
06:59PM 35.8942 -114.4978 290° West 377 434 43,000  Level Los Angeles Center
07:00PM 35.9269 -114.6219 288° West 380 437 43,000  Level Los Angeles Center
07:01PM 35.9611 -114.7456 289° West 379 436 43,000  Level Los Angeles Center
07:02PM 35.9961 -114.8686 289° West 379 436 43,000  Level Los Angeles Center
07:03PM 36.0194 -114.9953 283° West 376 433 43,000  Level Los Angeles Center
07:04PM 36.0472 -115.1219 285° West 380 437 43,000  Level Los Angeles Center
07:05PM 36.0783 -115.2758 284° West 386 444 43,000  Level Los Angeles Center
07:06PM 36.1028 -115.4028 283° West 381 438 43,000  Level Los Angeles Center
07:07PM 36.1250 -115.5306 282° West 377 434 43,000  Level Los Angeles Center
07:08PM 36.1522 -115.6639 284° West 392 451 43,000  Level Los Angeles Center
07:09PM 36.1789 -115.7953 284° West 389 448 43,000  Level Los Angeles Center
07:10PM 36.2033 -115.9139 284° West 386 444 43,000  Level Los Angeles Center
07:11PM 36.2281 -116.0439 283° West 386 444 43,000  Level Los Angeles Center
07:12PM 36.2578 -116.1975 284° West 383 441 43,000  Level Los Angeles Center
07:13PM 36.2800 -116.3156 283° West 386 444 43,000  Level Los Angeles Center
07:14PM 36.3053 -116.4439 284° West 386 444 43,000  Level Los Angeles Center
07:15PM 36.3294 -116.5736 283° West 388 447 43,000  Level Los Angeles Center
07:16PM 36.3578 -116.7269 283° West 384 442 43,000  Level Los Angeles Center
07:17PM 36.3811 -116.8561 283° West 384 442 43,000  Level Los Angeles Center
07:18PM 36.4053 -116.9861 283° West 387 445 43,000  Level Los Angeles Center
07:19PM 36.4292 -117.1142 283° West 386 444 43,000  Level Los Angeles Center
07:20PM 36.4525 -117.2433 283° West 385 443 43,000  Level Los Angeles Center
07:21PM 36.4761 -117.3750 283° West 389 448 43,000  Level Los Angeles Center
07:22PM 36.4992 -117.5064 282° West 390 449 43,000  Level Los Angeles Center
07:23PM 36.5264 -117.6622 282° West 388 447 43,000  Level Los Angeles Center
07:24PM 36.5522 -117.7928 284° West 385 443 43,000  Level Los Angeles Center
07:25PM 36.6017 -117.9103 298° West 404 465 43,000  Level Los Angeles Center
07:28PM 36.7178 -118.2039 296° West 397 457 43,000  Level Los Angeles Center
07:29PM 36.7636 -118.3267 295° West 394 453 43,000  Level Los Angeles Center
07:30PM 36.8028 -118.4889 287° West 392 451 43,000  Level Oakland Center
07:31PM 36.8372 -118.6175 289° West 392 451 43,000  Level Oakland Center
07:32PM 36.8717 -118.7444 289° West 389 448 43,000 -480 Level Oakland Center
07:33PM 36.9044 -118.8736 288° West 391 450 42,100 -900 Descending Oakland Center
07:34PM 36.9397 -119.0075 288° West 401 461 41,200 -960 Descending Oakland Center
07:35PM 36.9756 -119.1436 288° West 407 468 40,200 -1,020 Descending Oakland Center
07:36PM 37.0111 -119.2822 288° West 413 475 39,200 -960 Descending Oakland Center
07:37PM 37.0464 -119.4186 288° West 414 476 38,300 -600 Descending Oakland Center
07:38PM 37.0800 -119.5503 288° West 410 472 38,000 -180 Descending Oakland Center
07:39PM 37.1208 -119.7136 287° West 410 472 38,000  Level Oakland Center
07:40PM 37.1550 -119.8486 288° West 404 465 38,000  Level Oakland Center
07:41PM 37.1892 -119.9833 288° West 405 466 38,000  Level Oakland Center
07:42PM 37.2228 -120.1186 287° West 407 468 38,000  Level Oakland Center
07:43PM 37.2567 -120.2550 287° West 408 470 38,000 -480 Level Oakland Center
07:44PM 37.2906 -120.3928 287° West 413 475 37,100 -1,020 Descending Oakland Center
07:45PM 37.3253 -120.5361 287° West 426 490 36,000 -1,140 Descending Oakland Center
07:46PM 37.3617 -120.6794 288° West 430 495 34,800 -1,140 Descending Oakland Center
07:47PM 37.3950 -120.8233 286° West 428 493 33,700 -1,140 Descending Oakland Center
07:48PM 37.4297 -120.9625 287° West 419 482 32,500 -1,140 Descending Oakland Center
07:49PM 37.4619 -121.1025 286° West 417 480 31,400 -1,260 Descending Oakland Center
07:50PM 37.5000 -121.2500 288° West 404 465 30,100 -1,920 Descending Northern Cal TRACON
07:51PM 37.5333 -121.3833 288° West 405 466 27,800 -2,460 Descending Northern Cal TRACON
07:52PM 37.5667 -121.5000 290° West 398 458 25,500 -2,580 Descending Northern Cal TRACON
07:53PM 37.5833 -121.6333 279° West 391 450 23,000 -2,520 Descending Northern Cal TRACON
07:54PM 37.6167 -121.7667 288° West 365 420 20,500 -2,520 Descending Northern Cal TRACON
07:55PM 37.6500 -121.8833 290° West 348 400 18,000 -2,400 Descending Northern Cal TRACON
07:56PM 37.6667 -122.0000 280° West 338 389 15,700 -2,400 Descending Northern Cal TRACON
07:57PM 37.7333 -122.0833 315° West 346 398 13,200 -1,980 Descending Northern Cal TRACON
07:59PM 37.8650 -122.2733 311° West 299 344 9,100 -2,100 Descending Oakland Center
08:01PM 37.9181 -122.3514 311° West 297 342 6,200 -1,560 Descending Oakland Center
08:02PM 37.9775 -122.3906 333° Northwest 273 314 6,000 -600 Descending Oakland Center
08:03PM 38.0503 -122.3603 18° North 279 321 5,000 -1,560 Descending Oakland Center
08:04PM 38.1094 -122.3156 31° Northeast 265 305 2,900 -1,620 Descending Oakland Center
08:05PM 38.1581 -122.2622 41° Northeast 238 274 1,800 -600 Descending Oakland Center
08:06PM 38.1781 -122.2092 64° Northeast 188 216 1,800 -600 Level Oakland Center
08:07PM 38.2139 -122.2286 337° Northwest 153 176 700 -1,140 Descending Oakland Center